createdAt,value
2019-03-09T00:00:32.518Z,1024.98
2019-03-09T00:01:13.148Z,1024.98
2019-03-09T00:01:53.950Z,1024.97
2019-03-09T00:02:34.599Z,1024.99
2019-03-09T00:03:15.199Z,1025
2019-03-09T00:03:55.824Z,1024.99
2019-03-09T00:04:36.444Z,1025.01
2019-03-09T00:05:17.130Z,1025.05
2019-03-09T00:05:57.782Z,1025
2019-03-09T00:06:38.436Z,1025.03
2019-03-09T00:07:19.054Z,1024.98
2019-03-09T00:07:59.684Z,1025.01
2019-03-09T00:08:40.319Z,1024.98
2019-03-09T00:09:20.931Z,1025.02
2019-03-09T00:10:01.508Z,1025.05
2019-03-09T00:10:42.164Z,1025.03
2019-03-09T00:11:34.840Z,1024.99
2019-03-09T00:12:13.636Z,1024.99
2019-03-09T00:12:54.218Z,1025.04
2019-03-09T00:13:34.906Z,1025.02
2019-03-09T00:14:15.505Z,1025.02
2019-03-09T00:14:56.102Z,1025.06
2019-03-09T00:15:36.694Z,1025.02
2019-03-09T00:16:17.309Z,1025.03
2019-03-09T00:16:57.914Z,1025.05
2019-03-09T00:17:38.515Z,1025.03
2019-03-09T00:18:19.105Z,1025.04
2019-03-09T00:18:59.714Z,1025.03
2019-03-09T00:19:40.504Z,1025.03
2019-03-09T00:20:21.923Z,1025.06
2019-03-09T00:21:03.136Z,1025.06
2019-03-09T00:21:44.156Z,1025.08
2019-03-09T00:22:25.122Z,1025.08
2019-03-09T00:23:06.231Z,1025.08
2019-03-09T00:23:46.848Z,1025.14
2019-03-09T00:24:27.484Z,1025.11
2019-03-09T00:25:08.074Z,1025.13
2019-03-09T00:25:48.747Z,1025.1
2019-03-09T00:26:29.361Z,1025.11
2019-03-09T00:27:09.950Z,1025.11
2019-03-09T00:27:50.574Z,1025.11
2019-03-09T00:28:31.156Z,1025.15
2019-03-09T00:29:11.748Z,1025.12
2019-03-09T00:29:52.339Z,1025.12
2019-03-09T00:30:32.964Z,1025.13
2019-03-09T00:31:13.559Z,1025.12
2019-03-09T00:31:54.168Z,1025.16
2019-03-09T00:32:34.770Z,1025.14
2019-03-09T00:33:15.386Z,1025.12
2019-03-09T00:33:56.015Z,1025.09
2019-03-09T00:34:36.592Z,1025.07
2019-03-09T00:35:17.202Z,1025.08
2019-03-09T00:35:57.822Z,1025.11
2019-03-09T00:36:38.426Z,1025.11
2019-03-09T00:37:19.043Z,1025.13
2019-03-09T00:37:59.648Z,1025.16
2019-03-09T00:38:40.236Z,1025.16
2019-03-09T00:39:20.824Z,1025.14
2019-03-09T00:40:01.433Z,1025.16
2019-03-09T00:40:42.048Z,1025.19
2019-03-09T00:41:22.642Z,1025.17
2019-03-09T00:42:03.250Z,1025.22
2019-03-09T00:42:43.866Z,1025.21
2019-03-09T00:43:24.452Z,1025.24
2019-03-09T00:44:05.094Z,1025.2
2019-03-09T00:44:45.672Z,1025.22
2019-03-09T00:45:26.250Z,1025.24
2019-03-09T00:46:06.846Z,1025.23
2019-03-09T00:46:47.435Z,1025.23
2019-03-09T00:47:28.020Z,1025.25
2019-03-09T00:48:08.616Z,1025.26
2019-03-09T00:48:49.206Z,1025.27
2019-03-09T00:49:29.856Z,1025.24
2019-03-09T00:50:10.459Z,1025.23
2019-03-09T00:50:51.036Z,1025.21
2019-03-09T00:51:31.632Z,1025.18
2019-03-09T00:52:12.228Z,1025.19
2019-03-09T00:52:52.856Z,1025.19
2019-03-09T00:53:33.472Z,1025.2
2019-03-09T00:54:15.160Z,1025.2
2019-03-09T00:54:54.686Z,1025.2
2019-03-09T00:55:35.487Z,1025.19
2019-03-09T00:56:16.774Z,1025.22
2019-03-09T00:56:57.958Z,1025.21
2019-03-09T00:57:38.563Z,1025.18
2019-03-09T00:58:19.170Z,1025.19
2019-03-09T00:58:59.776Z,1025.17
2019-03-09T00:59:40.382Z,1025.18
2019-03-09T01:00:20.974Z,1025.21
2019-03-09T01:01:01.576Z,1025.19
2019-03-09T01:01:42.208Z,1025.23
2019-03-09T01:02:22.796Z,1025.23
2019-03-09T01:03:03.380Z,1025.22
2019-03-09T01:03:43.987Z,1025.23
2019-03-09T01:04:24.589Z,1025.2
2019-03-09T01:05:05.189Z,1025.22
2019-03-09T01:05:45.778Z,1025.24
2019-03-09T01:06:26.360Z,1025.21
2019-03-09T01:07:06.941Z,1025.25
2019-03-09T01:07:47.535Z,1025.22
2019-03-09T01:08:28.196Z,1025.24
2019-03-09T01:09:08.803Z,1025.21
2019-03-09T01:09:49.417Z,1025.28
2019-03-09T01:10:30.017Z,1025.27
2019-03-09T01:11:10.616Z,1025.28
2019-03-09T01:11:51.218Z,1025.3
2019-03-09T01:12:31.819Z,1025.26
2019-03-09T01:13:12.456Z,1025.31
2019-03-09T01:13:53.062Z,1025.33
2019-03-09T01:14:33.696Z,1025.34
2019-03-09T01:15:14.281Z,1025.32
2019-03-09T01:15:54.878Z,1025.34
2019-03-09T01:16:35.460Z,1025.33
2019-03-09T01:17:16.056Z,1025.31
2019-03-09T01:17:56.644Z,1025.32
2019-03-09T01:18:37.228Z,1025.33
2019-03-09T01:19:17.835Z,1025.32
2019-03-09T01:19:58.433Z,1025.3
2019-03-09T01:20:39.068Z,1025.31
2019-03-09T01:21:19.666Z,1025.34
2019-03-09T01:22:00.261Z,1025.33
2019-03-09T01:22:40.874Z,1025.37
2019-03-09T01:23:21.478Z,1025.33
2019-03-09T01:24:02.100Z,1025.36
2019-03-09T01:24:42.714Z,1025.38
2019-03-09T01:25:23.303Z,1025.38
2019-03-09T01:26:03.906Z,1025.37
2019-03-09T01:26:44.537Z,1025.37
2019-03-09T01:27:25.142Z,1025.41
2019-03-09T01:28:05.737Z,1025.39
2019-03-09T01:28:46.346Z,1025.43
2019-03-09T01:29:26.934Z,1025.41
2019-03-09T01:30:07.524Z,1025.42
2019-03-09T01:30:48.132Z,1025.41
2019-03-09T01:31:28.774Z,1025.38
2019-03-09T01:32:09.374Z,1025.36
2019-03-09T01:32:49.968Z,1025.42
2019-03-09T01:33:30.551Z,1025.44
2019-03-09T01:34:11.135Z,1025.35
2019-03-09T01:34:51.728Z,1025.37
2019-03-09T01:35:32.314Z,1025.41
2019-03-09T01:36:12.905Z,1025.39
2019-03-09T01:36:53.482Z,1025.39
2019-03-09T01:37:34.074Z,1025.41
2019-03-09T01:38:14.678Z,1025.42
2019-03-09T01:38:55.275Z,1025.41
2019-03-09T01:39:35.910Z,1025.45
2019-03-09T01:40:16.504Z,1025.45
2019-03-09T01:40:57.092Z,1025.45
2019-03-09T01:41:37.696Z,1025.46
2019-03-09T01:42:18.290Z,1025.46
2019-03-09T01:42:58.884Z,1025.46
2019-03-09T01:43:39.470Z,1025.45
2019-03-09T01:44:20.054Z,1025.46
2019-03-09T01:45:00.642Z,1025.49
2019-03-09T01:45:41.258Z,1025.5
2019-03-09T01:46:21.846Z,1025.49
2019-03-09T01:47:02.452Z,1025.51
2019-03-09T01:47:43.061Z,1025.55
2019-03-09T01:48:23.656Z,1025.54
2019-03-09T01:49:04.255Z,1025.55
2019-03-09T01:49:44.856Z,1025.57
2019-03-09T01:50:25.443Z,1025.53
2019-03-09T01:51:06.048Z,1025.52
2019-03-09T01:51:46.650Z,1025.54
2019-03-09T01:52:27.267Z,1025.51
2019-03-09T01:53:07.862Z,1025.5
2019-03-09T01:53:48.464Z,1025.49
2019-03-09T01:54:29.066Z,1025.46
2019-03-09T01:55:09.681Z,1025.48
2019-03-09T01:55:50.272Z,1025.46
2019-03-09T01:56:30.856Z,1025.47
2019-03-09T01:57:11.467Z,1025.42
2019-03-09T01:57:52.061Z,1025.43
2019-03-09T01:58:32.646Z,1025.42
2019-03-09T01:59:13.230Z,1025.43
2019-03-09T01:59:53.856Z,1025.41
2019-03-09T02:00:34.458Z,1025.42
2019-03-09T02:01:15.050Z,1025.39
2019-03-09T02:01:55.643Z,1025.41
2019-03-09T02:02:36.240Z,1025.39
2019-03-09T02:03:16.864Z,1025.37
2019-03-09T02:03:57.421Z,1025.39
2019-03-09T02:04:38.013Z,1025.4
2019-03-09T02:05:18.622Z,1025.4
2019-03-09T02:05:59.216Z,1025.39
2019-03-09T02:06:39.800Z,1025.4
2019-03-09T02:07:20.392Z,1025.41
2019-03-09T02:08:00.974Z,1025.38
2019-03-09T02:08:41.585Z,1025.38
2019-03-09T02:09:22.192Z,1025.38
2019-03-09T02:10:02.799Z,1025.35
2019-03-09T02:10:43.410Z,1025.35
2019-03-09T02:11:24.010Z,1025.38
2019-03-09T02:12:04.640Z,1025.35
2019-03-09T02:12:45.226Z,1025.35
2019-03-09T02:13:25.808Z,1025.35
2019-03-09T02:14:06.399Z,1025.34
2019-03-09T02:14:47.020Z,1025.34
2019-03-09T02:15:27.613Z,1025.35
2019-03-09T02:16:08.201Z,1025.29
2019-03-09T02:16:48.846Z,1025.31
2019-03-09T02:17:29.443Z,1025.29
2019-03-09T02:18:10.040Z,1025.29
2019-03-09T02:18:50.656Z,1025.23
2019-03-09T02:19:31.265Z,1025.2
2019-03-09T02:20:11.864Z,1025.19
2019-03-09T02:20:52.435Z,1025.18
2019-03-09T02:21:33.029Z,1025.16
2019-03-09T02:22:13.626Z,1025.17
2019-03-09T02:22:54.248Z,1025.16
2019-03-09T02:23:34.844Z,1025.17
2019-03-09T02:24:15.441Z,1025.16
2019-03-09T02:24:56.040Z,1025.15
2019-03-09T02:25:36.631Z,1025.1
2019-03-09T02:26:17.284Z,1025.06
2019-03-09T02:26:57.940Z,1025.09
2019-03-09T02:27:38.590Z,1025.09
2019-03-09T02:28:19.180Z,1025.12
2019-03-09T02:29:01.019Z,1025.11
2019-03-09T02:29:40.374Z,1025.14
2019-03-09T02:30:20.966Z,1025.12
2019-03-09T02:31:01.567Z,1025.13
2019-03-09T02:31:42.150Z,1025.18
2019-03-09T02:32:22.735Z,1025.2
2019-03-09T02:33:03.394Z,1025.23
2019-03-09T02:33:43.983Z,1025.21
2019-03-09T02:34:24.576Z,1025.16
2019-03-09T02:35:05.163Z,1025.18
2019-03-09T02:35:45.747Z,1025.11
2019-03-09T02:36:26.433Z,1025.16
2019-03-09T02:37:06.948Z,1025.12
2019-03-09T02:37:47.551Z,1025.15
2019-03-09T02:38:28.145Z,1025.19
2019-03-09T02:39:08.752Z,1025.18
2019-03-09T02:39:49.334Z,1025.16
2019-03-09T02:40:29.945Z,1025.16
2019-03-09T02:41:10.509Z,1025.14
2019-03-09T02:41:51.110Z,1025.11
2019-03-09T02:42:31.683Z,1025.13
2019-03-09T02:43:12.305Z,1025.11
2019-03-09T02:43:52.927Z,1025.1
2019-03-09T02:44:33.519Z,1025.1
2019-03-09T02:45:14.128Z,1025.09
2019-03-09T02:45:54.732Z,1025.1
2019-03-09T02:46:35.320Z,1025.08
2019-03-09T02:47:15.927Z,1025.11
2019-03-09T02:47:56.532Z,1025.1
2019-03-09T02:48:37.116Z,1025.07
2019-03-09T02:49:17.719Z,1025.06
2019-03-09T02:49:58.575Z,1025.05
2019-03-09T02:50:38.899Z,1025.03
2019-03-09T02:51:19.484Z,1025.03
2019-03-09T02:52:00.081Z,1025
2019-03-09T02:52:40.667Z,1025.03
2019-03-09T02:53:21.267Z,1025
2019-03-09T02:54:01.899Z,1024.99
2019-03-09T02:54:42.513Z,1025.04
2019-03-09T02:55:23.085Z,1025.02
2019-03-09T02:56:03.678Z,1024.98
2019-03-09T02:56:44.256Z,1025.04
2019-03-09T02:57:24.850Z,1025.01
2019-03-09T02:58:05.433Z,1025.01
2019-03-09T02:58:46.014Z,1025.04
2019-03-09T02:59:26.607Z,1025.08
2019-03-09T03:00:07.201Z,1025.07
2019-03-09T03:00:47.785Z,1025.04
2019-03-09T03:01:28.471Z,1025.02
2019-03-09T03:02:09.066Z,1025.08
2019-03-09T03:02:49.658Z,1025.05
2019-03-09T03:03:30.240Z,1025.05
2019-03-09T03:04:10.851Z,1024.99
2019-03-09T03:04:51.483Z,1024.98
2019-03-09T03:05:32.077Z,1025.02
2019-03-09T03:06:12.675Z,1024.98
2019-03-09T03:06:53.270Z,1024.99
2019-03-09T03:07:33.863Z,1025.02
2019-03-09T03:08:14.469Z,1025.02
2019-03-09T03:08:55.056Z,1025
2019-03-09T03:09:35.677Z,1025
2019-03-09T03:10:16.273Z,1025
2019-03-09T03:10:56.863Z,1025.05
2019-03-09T03:11:37.628Z,1025.04
2019-03-09T03:12:18.039Z,1025.04
2019-03-09T03:12:58.652Z,1025
2019-03-09T03:13:39.255Z,1025
2019-03-09T03:14:19.862Z,1024.99
2019-03-09T03:15:00.466Z,1025.02
2019-03-09T03:15:41.043Z,1024.97
2019-03-09T03:16:21.633Z,1024.96
2019-03-09T03:17:02.220Z,1024.97
2019-03-09T03:17:42.810Z,1024.96
2019-03-09T03:18:23.450Z,1024.97
2019-03-09T03:19:04.040Z,1025.03
2019-03-09T03:19:44.642Z,1024.98
2019-03-09T03:20:25.237Z,1024.99
2019-03-09T03:21:05.831Z,1024.98
2019-03-09T03:21:46.419Z,1024.99
2019-03-09T03:22:27.024Z,1024.93
2019-03-09T03:23:07.634Z,1024.94
2019-03-09T03:23:48.248Z,1025
2019-03-09T03:24:28.850Z,1024.99
2019-03-09T03:25:09.461Z,1024.97
2019-03-09T03:25:50.037Z,1024.96
2019-03-09T03:26:30.646Z,1024.98
2019-03-09T03:27:11.242Z,1024.97
2019-03-09T03:27:51.889Z,1024.98
2019-03-09T03:28:32.478Z,1024.95
2019-03-09T03:29:13.070Z,1024.99
2019-03-09T03:29:53.706Z,1024.95
2019-03-09T03:30:34.295Z,1024.92
2019-03-09T03:31:14.885Z,1024.92
2019-03-09T03:31:55.477Z,1024.96
2019-03-09T03:32:36.166Z,1024.96
2019-03-09T03:33:16.816Z,1024.99
2019-03-09T03:33:57.269Z,1024.91
2019-03-09T03:34:37.900Z,1024.93
2019-03-09T03:35:18.469Z,1024.88
2019-03-09T03:35:59.051Z,1024.93
2019-03-09T03:36:39.662Z,1024.87
2019-03-09T03:37:20.255Z,1024.91
2019-03-09T03:38:00.861Z,1024.89
2019-03-09T03:38:41.453Z,1024.87
2019-03-09T03:39:22.068Z,1024.86
2019-03-09T03:40:02.664Z,1024.85
2019-03-09T03:40:43.265Z,1024.84
2019-03-09T03:41:23.864Z,1024.83
2019-03-09T03:42:04.483Z,1024.85
2019-03-09T03:42:45.073Z,1024.82
2019-03-09T03:43:25.694Z,1024.86
2019-03-09T03:44:06.288Z,1024.86
2019-03-09T03:44:46.879Z,1024.83
2019-03-09T03:45:27.495Z,1024.82
2019-03-09T03:46:08.084Z,1024.84
2019-03-09T03:46:48.686Z,1024.85
2019-03-09T03:47:29.371Z,1024.84
2019-03-09T03:48:09.961Z,1024.88
2019-03-09T03:48:50.557Z,1024.86
2019-03-09T03:49:31.153Z,1024.85
2019-03-09T03:50:11.747Z,1024.86
2019-03-09T03:50:52.387Z,1024.83
2019-03-09T03:51:32.973Z,1024.92
2019-03-09T03:52:13.559Z,1024.86
2019-03-09T03:52:54.149Z,1024.89
2019-03-09T03:53:34.777Z,1024.88
2019-03-09T03:54:15.326Z,1024.86
2019-03-09T03:54:55.912Z,1024.93
2019-03-09T03:55:36.497Z,1024.9
2019-03-09T03:56:17.075Z,1024.88
2019-03-09T03:56:57.661Z,1024.9
2019-03-09T03:57:38.274Z,1024.94
2019-03-09T03:58:18.883Z,1024.93
2019-03-09T03:58:59.477Z,1024.92
2019-03-09T03:59:40.100Z,1024.92
2019-03-09T04:00:20.702Z,1024.95
2019-03-09T04:01:01.297Z,1024.9
2019-03-09T04:01:41.883Z,1024.94
2019-03-09T04:02:22.471Z,1024.93
2019-03-09T04:03:03.072Z,1024.92
2019-03-09T04:03:43.655Z,1025
2019-03-09T04:04:24.260Z,1024.98
2019-03-09T04:05:04.844Z,1024.98
2019-03-09T04:05:45.444Z,1024.99
2019-03-09T04:06:26.031Z,1025.02
2019-03-09T04:07:06.629Z,1024.99
2019-03-09T04:07:47.211Z,1025.02
2019-03-09T04:08:27.811Z,1025.03
2019-03-09T04:09:08.396Z,1025.07
2019-03-09T04:09:48.997Z,1025.09
2019-03-09T04:10:29.594Z,1025.1
2019-03-09T04:11:10.201Z,1025.12
2019-03-09T04:11:50.789Z,1025.11
2019-03-09T04:12:31.369Z,1025.12
2019-03-09T04:13:11.951Z,1025.05
2019-03-09T04:13:52.554Z,1025.11
2019-03-09T04:14:33.139Z,1025.11
2019-03-09T04:15:13.723Z,1025.11
2019-03-09T04:15:54.319Z,1025.14
2019-03-09T04:16:34.927Z,1025.12
2019-03-09T04:17:15.521Z,1025.14
2019-03-09T04:17:56.116Z,1025.23
2019-03-09T04:18:36.733Z,1025.15
2019-03-09T04:19:17.329Z,1025.19
2019-03-09T04:19:57.914Z,1025.2
2019-03-09T04:20:38.508Z,1025.21
2019-03-09T04:21:19.092Z,1025.15
2019-03-09T04:21:59.678Z,1025.15
2019-03-09T04:22:40.273Z,1025.18
2019-03-09T04:23:20.873Z,1025.15
2019-03-09T04:24:01.445Z,1025.14
2019-03-09T04:24:42.034Z,1025.15
2019-03-09T04:25:22.689Z,1025.14
2019-03-09T04:26:03.285Z,1025.16
2019-03-09T04:26:43.911Z,1025.14
2019-03-09T04:27:24.549Z,1025.15
2019-03-09T04:28:05.157Z,1025.16
2019-03-09T04:28:45.789Z,1025.18
2019-03-09T04:29:26.375Z,1025.18
2019-03-09T04:30:06.970Z,1025.17
2019-03-09T04:30:47.558Z,1025.22
2019-03-09T04:31:28.139Z,1025.19
2019-03-09T04:32:08.739Z,1025.19
2019-03-09T04:32:49.327Z,1025.23
2019-03-09T04:33:29.918Z,1025.25
2019-03-09T04:34:10.502Z,1025.26
2019-03-09T04:34:51.104Z,1025.3
2019-03-09T04:35:31.705Z,1025.28
2019-03-09T04:36:12.293Z,1025.28
2019-03-09T04:36:52.905Z,1025.29
2019-03-09T04:37:33.483Z,1025.31
2019-03-09T04:38:14.079Z,1025.33
2019-03-09T04:38:54.677Z,1025.33
2019-03-09T04:39:35.270Z,1025.35
2019-03-09T04:40:15.859Z,1025.34
2019-03-09T04:40:56.444Z,1025.33
2019-03-09T04:41:37.068Z,1025.33
2019-03-09T04:42:17.626Z,1025.33
2019-03-09T04:42:58.257Z,1025.34
2019-03-09T04:43:38.849Z,1025.35
2019-03-09T04:44:19.438Z,1025.32
2019-03-09T04:45:00.060Z,1025.28
2019-03-09T04:45:40.675Z,1025.29
2019-03-09T04:46:21.263Z,1025.3
2019-03-09T04:47:01.853Z,1025.3
2019-03-09T04:47:42.449Z,1025.28
2019-03-09T04:48:23.058Z,1025.27
2019-03-09T04:49:03.657Z,1025.25
2019-03-09T04:49:44.267Z,1025.21
2019-03-09T04:50:24.851Z,1025.25
2019-03-09T04:51:05.452Z,1025.23
2019-03-09T04:51:46.046Z,1025.24
2019-03-09T04:52:26.645Z,1025.3
2019-03-09T04:53:07.232Z,1025.28
2019-03-09T04:53:47.845Z,1025.26
2019-03-09T04:54:28.465Z,1025.32
2019-03-09T04:55:09.021Z,1025.33
2019-03-09T04:55:49.614Z,1025.32
2019-03-09T04:56:30.213Z,1025.36
2019-03-09T04:57:10.818Z,1025.34
2019-03-09T04:57:51.417Z,1025.34
2019-03-09T04:58:31.997Z,1025.34
2019-03-09T04:59:12.568Z,1025.36
2019-03-09T04:59:53.160Z,1025.35
2019-03-09T05:00:34.085Z,1025.37
2019-03-09T05:01:14.896Z,1025.3
2019-03-09T05:01:55.495Z,1025.33
2019-03-09T05:02:36.105Z,1025.34
2019-03-09T05:03:16.713Z,1025.27
2019-03-09T05:03:57.348Z,1025.31
2019-03-09T05:04:37.956Z,1025.31
2019-03-09T05:05:18.543Z,1025.3
2019-03-09T05:05:59.117Z,1025.26
2019-03-09T05:06:39.711Z,1025.31
2019-03-09T05:07:20.310Z,1025.3
2019-03-09T05:08:00.924Z,1025.35
2019-03-09T05:08:41.527Z,1025.3
2019-03-09T05:09:22.123Z,1025.27
2019-03-09T05:10:02.858Z,1025.28
2019-03-09T05:10:43.495Z,1025.28
2019-03-09T05:11:24.083Z,1025.32
2019-03-09T05:12:04.667Z,1025.31
2019-03-09T05:12:45.275Z,1025.36
2019-03-09T05:13:25.865Z,1025.37
2019-03-09T05:14:06.453Z,1025.36
2019-03-09T05:14:47.039Z,1025.37
2019-03-09T05:15:27.631Z,1025.38
2019-03-09T05:16:08.228Z,1025.4
2019-03-09T05:16:48.825Z,1025.47
2019-03-09T05:17:29.440Z,1025.43
2019-03-09T05:18:10.045Z,1025.41
2019-03-09T05:18:50.636Z,1025.43
2019-03-09T05:19:31.241Z,1025.47
2019-03-09T05:20:11.841Z,1025.47
2019-03-09T05:20:52.427Z,1025.5
2019-03-09T05:21:33.015Z,1025.51
2019-03-09T05:22:13.603Z,1025.51
2019-03-09T05:22:54.195Z,1025.57
2019-03-09T05:23:34.779Z,1025.61
2019-03-09T05:24:15.364Z,1025.61
2019-03-09T05:24:55.963Z,1025.64
2019-03-09T05:25:36.589Z,1025.61
2019-03-09T05:26:17.177Z,1025.6
2019-03-09T05:26:57.789Z,1025.61
2019-03-09T05:27:38.365Z,1025.62
2019-03-09T05:28:18.957Z,1025.63
2019-03-09T05:28:59.558Z,1025.62
2019-03-09T05:29:40.163Z,1025.57
2019-03-09T05:30:20.769Z,1025.6
2019-03-09T05:31:01.361Z,1025.53
2019-03-09T05:31:41.949Z,1025.53
2019-03-09T05:32:22.555Z,1025.53
2019-03-09T05:33:03.142Z,1025.57
2019-03-09T05:33:43.724Z,1025.57
2019-03-09T05:34:24.319Z,1025.58
2019-03-09T05:35:04.932Z,1025.59
2019-03-09T05:35:45.528Z,1025.58
2019-03-09T05:36:26.124Z,1025.55
2019-03-09T05:37:06.719Z,1025.54
2019-03-09T05:37:47.308Z,1025.54
2019-03-09T05:38:27.900Z,1025.57
2019-03-09T05:39:08.500Z,1025.57
2019-03-09T05:39:49.081Z,1025.6
2019-03-09T05:40:29.665Z,1025.63
2019-03-09T05:41:10.315Z,1025.68
2019-03-09T05:41:50.900Z,1025.67
2019-03-09T05:42:31.489Z,1025.64
2019-03-09T05:43:12.075Z,1025.67
2019-03-09T05:43:52.669Z,1025.64
2019-03-09T05:44:33.257Z,1025.64
2019-03-09T05:45:13.848Z,1025.67
2019-03-09T05:45:54.453Z,1025.71
2019-03-09T05:46:35.039Z,1025.71
2019-03-09T05:47:15.636Z,1025.69
2019-03-09T05:47:56.227Z,1025.7
2019-03-09T05:48:36.821Z,1025.75
2019-03-09T05:49:17.421Z,1025.69
2019-03-09T05:49:58.011Z,1025.72
2019-03-09T05:50:38.581Z,1025.73
2019-03-09T05:51:19.187Z,1025.7
2019-03-09T05:51:59.778Z,1025.71
2019-03-09T05:52:40.381Z,1025.69
2019-03-09T05:53:20.971Z,1025.71
2019-03-09T05:54:01.555Z,1025.76
2019-03-09T05:54:42.143Z,1025.72
2019-03-09T05:55:22.746Z,1025.71
2019-03-09T05:56:03.335Z,1025.76
2019-03-09T05:56:43.933Z,1025.73
2019-03-09T05:57:24.523Z,1025.73
2019-03-09T05:58:05.121Z,1025.75
2019-03-09T05:58:45.753Z,1025.82
2019-03-09T05:59:26.333Z,1025.76
2019-03-09T06:00:06.917Z,1025.77
2019-03-09T06:00:47.507Z,1025.81
2019-03-09T06:01:28.089Z,1025.79
2019-03-09T06:02:08.697Z,1025.79
2019-03-09T06:02:49.296Z,1025.83
2019-03-09T06:03:29.885Z,1025.85
2019-03-09T06:04:10.465Z,1025.83
2019-03-09T06:04:51.056Z,1025.82
2019-03-09T06:05:31.643Z,1025.83
2019-03-09T06:06:12.221Z,1025.85
2019-03-09T06:06:52.811Z,1025.85
2019-03-09T06:07:33.405Z,1025.88
2019-03-09T06:08:13.994Z,1025.88
2019-03-09T06:08:54.586Z,1025.94
2019-03-09T06:09:35.211Z,1025.93
2019-03-09T06:10:15.795Z,1025.99
2019-03-09T06:10:56.376Z,1025.98
2019-03-09T06:11:36.993Z,1025.98
2019-03-09T06:12:17.593Z,1026.02
2019-03-09T06:12:58.181Z,1026
2019-03-09T06:13:38.789Z,1026.02
2019-03-09T06:14:19.379Z,1026.05
2019-03-09T06:14:59.994Z,1026.06
2019-03-09T06:15:40.576Z,1026.06
2019-03-09T06:16:21.175Z,1026.03
2019-03-09T06:17:01.777Z,1026.05
2019-03-09T06:17:42.361Z,1026.05
2019-03-09T06:18:22.957Z,1026.09
2019-03-09T06:19:03.565Z,1026.07
2019-03-09T06:19:44.154Z,1026.06
2019-03-09T06:20:24.741Z,1026.03
2019-03-09T06:21:05.367Z,1026.05
2019-03-09T06:21:45.955Z,1026.08
2019-03-09T06:22:26.558Z,1026.03
2019-03-09T06:23:07.143Z,1026.02
2019-03-09T06:23:47.743Z,1026.02
2019-03-09T06:24:28.379Z,1026.03
2019-03-09T06:25:08.986Z,1026.05
2019-03-09T06:25:49.572Z,1026.02
2019-03-09T06:26:30.171Z,1026.03
2019-03-09T06:27:10.778Z,1026.07
2019-03-09T06:27:51.367Z,1026.01
2019-03-09T06:28:31.979Z,1026.05
2019-03-09T06:29:12.569Z,1026
2019-03-09T06:29:53.155Z,1026.06
2019-03-09T06:30:33.745Z,1026.1
2019-03-09T06:31:14.339Z,1026.1
2019-03-09T06:31:54.925Z,1026.09
2019-03-09T06:32:35.520Z,1026.04
2019-03-09T06:33:16.094Z,1026.07
2019-03-09T06:33:56.673Z,1026.12
2019-03-09T06:34:37.259Z,1026.07
2019-03-09T06:35:17.871Z,1026.07
2019-03-09T06:35:58.467Z,1026.06
2019-03-09T06:36:39.055Z,1026.06
2019-03-09T06:37:19.663Z,1026.08
2019-03-09T06:38:00.256Z,1026.09
2019-03-09T06:38:40.850Z,1026.12
2019-03-09T06:39:21.449Z,1026.13
2019-03-09T06:40:02.057Z,1026.14
2019-03-09T06:40:42.630Z,1026.15
2019-03-09T06:41:23.217Z,1026.12
2019-03-09T06:42:03.805Z,1026.17
2019-03-09T06:42:44.382Z,1026.12
2019-03-09T06:43:24.968Z,1026.16
2019-03-09T06:44:05.557Z,1026.11
2019-03-09T06:44:46.160Z,1026.16
2019-03-09T06:45:26.757Z,1026.17
2019-03-09T06:46:07.362Z,1026.13
2019-03-09T06:46:49.974Z,1026.12
2019-03-09T06:47:28.553Z,1026.12
2019-03-09T06:48:09.180Z,1026.14
2019-03-09T06:48:49.733Z,1026.19
2019-03-09T06:49:30.333Z,1026.15
2019-03-09T06:50:10.927Z,1026.2
2019-03-09T06:50:51.554Z,1026.24
2019-03-09T06:51:32.133Z,1026.23
2019-03-09T06:52:12.729Z,1026.3
2019-03-09T06:52:53.347Z,1026.31
2019-03-09T06:53:33.941Z,1026.32
2019-03-09T06:54:14.547Z,1026.32
2019-03-09T06:54:55.148Z,1026.3
2019-03-09T06:55:35.737Z,1026.32
2019-03-09T06:56:16.349Z,1026.32
2019-03-09T06:56:56.943Z,1026.37
2019-03-09T06:57:37.543Z,1026.38
2019-03-09T06:58:18.143Z,1026.42
2019-03-09T06:58:58.735Z,1026.43
2019-03-09T06:59:39.324Z,1026.47
2019-03-09T07:00:19.906Z,1026.41
2019-03-09T07:01:00.495Z,1026.5
2019-03-09T07:01:41.093Z,1026.52
2019-03-09T07:02:21.697Z,1026.53
2019-03-09T07:03:02.276Z,1026.51
2019-03-09T07:03:42.855Z,1026.52
2019-03-09T07:04:23.464Z,1026.56
2019-03-09T07:05:04.035Z,1026.53
2019-03-09T07:05:44.624Z,1026.6
2019-03-09T07:06:25.213Z,1026.56
2019-03-09T07:07:05.811Z,1026.59
2019-03-09T07:07:46.398Z,1026.55
2019-03-09T07:08:26.981Z,1026.6
2019-03-09T07:09:07.576Z,1026.61
2019-03-09T07:09:48.161Z,1026.65
2019-03-09T07:10:28.771Z,1026.61
2019-03-09T07:11:09.361Z,1026.63
2019-03-09T07:11:49.946Z,1026.66
2019-03-09T07:12:30.529Z,1026.65
2019-03-09T07:13:11.115Z,1026.69
2019-03-09T07:13:53.015Z,1026.68
2019-03-09T07:14:32.309Z,1026.73
2019-03-09T07:15:12.900Z,1026.73
2019-03-09T07:15:53.510Z,1026.74
2019-03-09T07:16:34.141Z,1026.74
2019-03-09T07:17:14.747Z,1026.74
2019-03-09T07:17:55.327Z,1026.71
2019-03-09T07:18:35.931Z,1026.8
2019-03-09T07:19:16.523Z,1026.79
2019-03-09T07:19:57.101Z,1026.81
2019-03-09T07:20:37.709Z,1026.83
2019-03-09T07:21:18.298Z,1026.78
2019-03-09T07:21:58.904Z,1026.86
2019-03-09T07:22:39.567Z,1026.8
2019-03-09T07:23:20.163Z,1026.81
2019-03-09T07:24:00.763Z,1026.83
2019-03-09T07:24:41.349Z,1026.84
2019-03-09T07:25:21.951Z,1026.86
2019-03-09T07:26:02.542Z,1026.88
2019-03-09T07:26:43.148Z,1026.87
2019-03-09T07:27:23.735Z,1026.89
2019-03-09T07:28:04.327Z,1026.88
2019-03-09T07:28:44.926Z,1026.89
2019-03-09T07:29:25.545Z,1026.87
2019-03-09T07:31:46.015Z,1026.86
2019-03-09T07:32:26.616Z,1026.86
2019-03-09T07:33:07.215Z,1026.85
2019-03-09T07:33:47.811Z,1026.87
2019-03-09T07:34:28.400Z,1026.87
2019-03-09T07:35:08.997Z,1026.91
2019-03-09T07:35:49.617Z,1026.9
2019-03-09T07:36:30.227Z,1026.9
2019-03-09T07:37:10.809Z,1026.9
2019-03-09T07:37:51.397Z,1026.87
2019-03-09T07:38:31.995Z,1026.93
2019-03-09T07:39:12.590Z,1026.92
2019-03-09T07:39:53.194Z,1026.96
2019-03-09T07:40:33.775Z,1026.99
2019-03-09T07:41:14.363Z,1026.97
2019-03-09T07:41:54.949Z,1027
2019-03-09T07:42:35.531Z,1027.01
2019-03-09T07:43:16.117Z,1027.06
2019-03-09T07:43:56.700Z,1027.01
2019-03-09T07:44:37.287Z,1027.04
2019-03-09T07:45:17.881Z,1027.05
2019-03-09T07:45:58.753Z,1027.03
2019-03-09T07:46:39.311Z,1027.04
2019-03-09T07:47:19.901Z,1027.1
2019-03-09T07:48:00.498Z,1027.07
2019-03-09T07:48:41.099Z,1027.08
2019-03-09T07:49:22.536Z,1027.13
2019-03-09T07:50:03.130Z,1027.16
2019-03-09T07:50:43.723Z,1027.15
2019-03-09T07:51:24.309Z,1027.15
2019-03-09T07:52:04.893Z,1027.13
2019-03-09T07:52:45.485Z,1027.18
2019-03-09T07:53:26.119Z,1027.18
2019-03-09T07:54:06.728Z,1027.22
2019-03-09T07:54:47.348Z,1027.14
2019-03-09T07:55:27.948Z,1027.19
2019-03-09T07:56:08.554Z,1027.22
2019-03-09T07:56:49.149Z,1027.21
2019-03-09T07:57:29.748Z,1027.24
2019-03-09T07:58:10.373Z,1027.26
2019-03-09T07:58:50.969Z,1027.28
2019-03-09T07:59:31.558Z,1027.3
2019-03-09T08:00:12.136Z,1027.32
2019-03-09T08:00:52.715Z,1027.27
2019-03-09T08:01:33.311Z,1027.3
2019-03-09T08:02:13.893Z,1027.3
2019-03-09T08:02:54.479Z,1027.29
2019-03-09T08:03:35.135Z,1027.29
2019-03-09T08:04:15.731Z,1027.33
2019-03-09T08:04:56.345Z,1027.34
2019-03-09T08:05:36.945Z,1027.34
2019-03-09T08:06:17.555Z,1027.37
2019-03-09T08:06:58.143Z,1027.33
2019-03-09T08:07:38.739Z,1027.34
2019-03-09T08:08:19.335Z,1027.34
2019-03-09T08:08:59.964Z,1027.34
2019-03-09T08:09:40.555Z,1027.37
2019-03-09T08:10:21.155Z,1027.38
2019-03-09T08:11:01.760Z,1027.34
2019-03-09T08:11:42.401Z,1027.38
2019-03-09T08:12:24.099Z,1027.4
2019-03-09T08:13:03.604Z,1027.42
2019-03-09T08:13:44.221Z,1027.41
2019-03-09T08:14:24.811Z,1027.44
2019-03-09T08:15:05.591Z,1027.43